サンホセ/フアン・サンタ・マリア の空港の天気 - METARとTAF

フアン・サンタ・マリア国際空港 ( MROC / SJO ) - コスタリカ サンホセ
飛行場実況気象(Metar)
観測時間08/13 22:00 CST (08/14 04:00 UTC)
風向・風速北北東 3m/s
視程10km以上
天気現象
少しの雲 雲底高度 150m
気温22℃
湿度100%
気圧1015hPa
METARMROC 140400Z 02005KT 9999 FEW005 22/22 A2998 NOSIG
過去の天気等 Google飛行場航空写真 Wunderground天気予報

過去48時間のMETAR

飛行場予報(TAF)
発表時間: 8/13 17:00 CST (8/13 23:00 UTC)
予報対象時間: 13日18時 CST ~ 14日18時 CST
風向・風速東 4m/s
視程10km以上
少しの雲 雲底高度 1070m
全天の4割程度の雲 雲底高度 3050m
13日20時 CST ~ 14日2時 CST に一時的に
風向・風速不定 1m/s
14日10時 CST ~ 14日13時 CST に徐々に
風向・風速西南西 4m/s
少しの塔状積雲 雲底高度 760m
14日14時 CST ~ 14日18時 CST に一時的に
天気現象しゅう雨
全天の4割程度の塔状積雲 雲底高度 610m
全天の8割程度の雲 雲底高度 910m
MROC 132300Z 1400/1424 08007KT 9999 FEW035 SCT100 TX28/1418Z TN19/1410Z
TEMPO 1402/1408 VRB02KT
BECMG 1416/1419 25008KT FEW025TCU
TEMPO 1420/1424 SHRA SCT020TCU BKN030